sensor_id;sensor_type;location;lat;lon;timestamp;P1;durP1;ratioP1;P2;durP2;ratioP2
66741;SDS011;53654;54.152;19.432;2022-12-17T00:00:42;34.70;;;23.80;;
66741;SDS011;53654;54.152;19.432;2022-12-17T00:03:28;34.70;;;23.60;;
66741;SDS011;53654;54.152;19.432;2022-12-17T00:06:13;34.00;;;23.50;;
66741;SDS011;53654;54.152;19.432;2022-12-17T00:08:58;35.60;;;23.30;;
66741;SDS011;53654;54.152;19.432;2022-12-17T00:11:44;34.80;;;24.00;;
66741;SDS011;53654;54.152;19.432;2022-12-17T00:14:29;34.40;;;23.90;;
66741;SDS011;53654;54.152;19.432;2022-12-17T00:17:14;31.50;;;22.70;;
66741;SDS011;53654;54.152;19.432;2022-12-17T00:20:00;35.20;;;25.00;;
66741;SDS011;53654;54.152;19.432;2022-12-17T00:22:45;38.00;;;25.40;;
66741;SDS011;53654;54.152;19.432;2022-12-17T00:25:30;36.40;;;25.20;;
66741;SDS011;53654;54.152;19.432;2022-12-17T00:28:15;35.40;;;25.40;;
66741;SDS011;53654;54.152;19.432;2022-12-17T00:31:01;35.30;;;25.20;;
66741;SDS011;53654;54.152;19.432;2022-12-17T00:33:46;37.30;;;25.50;;
66741;SDS011;53654;54.152;19.432;2022-12-17T00:36:32;34.40;;;24.20;;
66741;SDS011;53654;54.152;19.432;2022-12-17T00:39:17;33.90;;;23.60;;
66741;SDS011;53654;54.152;19.432;2022-12-17T00:42:03;34.70;;;24.10;;
66741;SDS011;53654;54.152;19.432;2022-12-17T00:44:48;34.10;;;24.10;;
66741;SDS011;53654;54.152;19.432;2022-12-17T00:47:33;33.90;;;23.60;;
66741;SDS011;53654;54.152;19.432;2022-12-17T00:50:19;32.70;;;22.30;;
66741;SDS011;53654;54.152;19.432;2022-12-17T00:53:04;30.90;;;21.60;;
66741;SDS011;53654;54.152;19.432;2022-12-17T00:55:50;34.40;;;22.60;;
66741;SDS011;53654;54.152;19.432;2022-12-17T00:58:35;29.10;;;19.90;;
66741;SDS011;53654;54.152;19.432;2022-12-17T01:01:34;26.90;;;19.80;;
66741;SDS011;53654;54.152;19.432;2022-12-17T01:04:19;27.70;;;19.00;;
66741;SDS011;53654;54.152;19.432;2022-12-17T01:07:04;28.00;;;19.40;;
66741;SDS011;53654;54.152;19.432;2022-12-17T01:09:50;29.60;;;20.10;;
66741;SDS011;53654;54.152;19.432;2022-12-17T01:12:35;31.20;;;19.80;;
66741;SDS011;53654;54.152;19.432;2022-12-17T01:15:22;32.60;;;21.90;;
66741;SDS011;53654;54.152;19.432;2022-12-17T01:18:07;33.10;;;21.10;;
66741;SDS011;53654;54.152;19.432;2022-12-17T01:20:55;31.20;;;21.00;;
66741;SDS011;53654;54.152;19.432;2022-12-17T01:23:41;30.80;;;20.10;;
66741;SDS011;53654;54.152;19.432;2022-12-17T01:26:26;32.30;;;20.80;;
66741;SDS011;53654;54.152;19.432;2022-12-17T01:29:14;33.10;;;21.20;;
66741;SDS011;53654;54.152;19.432;2022-12-17T01:31:59;31.40;;;20.50;;
66741;SDS011;53654;54.152;19.432;2022-12-17T01:34:44;29.60;;;19.60;;
66741;SDS011;53654;54.152;19.432;2022-12-17T01:37:30;27.60;;;18.60;;
66741;SDS011;53654;54.152;19.432;2022-12-17T01:40:15;27.80;;;18.70;;
66741;SDS011;53654;54.152;19.432;2022-12-17T01:43:00;27.60;;;18.10;;
66741;SDS011;53654;54.152;19.432;2022-12-17T01:45:46;26.80;;;17.70;;
66741;SDS011;53654;54.152;19.432;2022-12-17T01:48:37;28.80;;;18.90;;
66741;SDS011;53654;54.152;19.432;2022-12-17T01:51:25;28.50;;;19.10;;
66741;SDS011;53654;54.152;19.432;2022-12-17T01:54:13;30.60;;;19.70;;
66741;SDS011;53654;54.152;19.432;2022-12-17T01:56:59;32.40;;;21.60;;
66741;SDS011;53654;54.152;19.432;2022-12-17T01:59:50;32.10;;;20.40;;
66741;SDS011;53654;54.152;19.432;2022-12-17T02:02:41;32.90;;;21.00;;
66741;SDS011;53654;54.152;19.432;2022-12-17T02:09:49;31.30;;;20.00;;
66741;SDS011;53654;54.152;19.432;2022-12-17T02:15:12;31.90;;;20.50;;
66741;SDS011;53654;54.152;19.432;2022-12-17T02:18:09;30.50;;;19.50;;
66741;SDS011;53654;54.152;19.432;2022-12-17T02:21:01;51.20;;;34.00;;
66741;SDS011;53654;54.152;19.432;2022-12-17T02:27:13;31.20;;;19.90;;
66741;SDS011;53654;54.152;19.432;2022-12-17T02:30:05;30.10;;;20.00;;
66741;SDS011;53654;54.152;19.432;2022-12-17T02:32:52;32.20;;;20.90;;
66741;SDS011;53654;54.152;19.432;2022-12-17T02:35:58;34.20;;;21.50;;
66741;SDS011;53654;54.152;19.432;2022-12-17T02:38:48;31.20;;;20.50;;
66741;SDS011;53654;54.152;19.432;2022-12-17T02:44:24;31.50;;;21.10;;
66741;SDS011;53654;54.152;19.432;2022-12-17T02:47:11;30.80;;;19.90;;
66741;SDS011;53654;54.152;19.432;2022-12-17T02:49:58;31.90;;;20.30;;
66741;SDS011;53654;54.152;19.432;2022-12-17T02:52:44;32.30;;;20.50;;
66741;SDS011;53654;54.152;19.432;2022-12-17T02:55:32;30.90;;;19.80;;
66741;SDS011;53654;54.152;19.432;2022-12-17T02:58:18;33.00;;;22.00;;
66741;SDS011;53654;54.152;19.432;2022-12-17T03:01:04;31.90;;;20.60;;
66741;SDS011;53654;54.152;19.432;2022-12-17T03:03:50;33.50;;;21.10;;
66741;SDS011;53654;54.152;19.432;2022-12-17T03:06:35;35.00;;;21.50;;
66741;SDS011;53654;54.152;19.432;2022-12-17T03:09:21;33.50;;;21.50;;
66741;SDS011;53654;54.152;19.432;2022-12-17T03:12:07;32.70;;;20.80;;
66741;SDS011;53654;54.152;19.432;2022-12-17T03:14:52;31.50;;;20.50;;
66741;SDS011;53654;54.152;19.432;2022-12-17T03:17:38;32.60;;;21.10;;
66741;SDS011;53654;54.152;19.432;2022-12-17T03:20:23;27.60;;;18.40;;
66741;SDS011;53654;54.152;19.432;2022-12-17T03:23:09;28.50;;;18.90;;
66741;SDS011;53654;54.152;19.432;2022-12-17T03:25:59;28.80;;;18.70;;
66741;SDS011;53654;54.152;19.432;2022-12-17T03:28:45;30.40;;;19.50;;
66741;SDS011;53654;54.152;19.432;2022-12-17T03:31:31;31.00;;;20.30;;
66741;SDS011;53654;54.152;19.432;2022-12-17T03:34:17;30.10;;;20.00;;
66741;SDS011;53654;54.152;19.432;2022-12-17T03:37:02;30.00;;;19.80;;
66741;SDS011;53654;54.152;19.432;2022-12-17T03:39:48;30.60;;;19.20;;
66741;SDS011;53654;54.152;19.432;2022-12-17T03:42:33;30.80;;;19.20;;
66741;SDS011;53654;54.152;19.432;2022-12-17T03:45:18;30.80;;;20.20;;
66741;SDS011;53654;54.152;19.432;2022-12-17T03:50:50;27.80;;;19.00;;
66741;SDS011;53654;54.152;19.432;2022-12-17T03:53:37;30.10;;;20.50;;
66741;SDS011;53654;54.152;19.432;2022-12-17T03:56:22;33.00;;;20.50;;
66741;SDS011;53654;54.152;19.432;2022-12-17T03:59:08;28.90;;;19.90;;
66741;SDS011;53654;54.152;19.432;2022-12-17T04:01:54;30.20;;;19.80;;
66741;SDS011;53654;54.152;19.432;2022-12-17T04:04:40;29.20;;;19.30;;
66741;SDS011;53654;54.152;19.432;2022-12-17T04:07:25;31.40;;;20.10;;
66741;SDS011;53654;54.152;19.432;2022-12-17T04:10:10;32.60;;;20.50;;
66741;SDS011;53654;54.152;19.432;2022-12-17T04:12:56;33.50;;;21.80;;
66741;SDS011;53654;54.152;19.432;2022-12-17T04:15:41;31.70;;;21.20;;
66741;SDS011;53654;54.152;19.432;2022-12-17T04:18:26;34.10;;;23.10;;
66741;SDS011;53654;54.152;19.432;2022-12-17T04:21:12;37.00;;;24.50;;
66741;SDS011;53654;54.152;19.432;2022-12-17T04:23:57;36.70;;;23.40;;
66741;SDS011;53654;54.152;19.432;2022-12-17T04:26:43;36.20;;;23.40;;
66741;SDS011;53654;54.152;19.432;2022-12-17T04:29:28;34.70;;;23.30;;
66741;SDS011;53654;54.152;19.432;2022-12-17T04:32:13;33.90;;;22.50;;
66741;SDS011;53654;54.152;19.432;2022-12-17T04:35:01;35.60;;;23.30;;
66741;SDS011;53654;54.152;19.432;2022-12-17T04:37:47;35.90;;;23.40;;
66741;SDS011;53654;54.152;19.432;2022-12-17T04:40:32;35.60;;;23.10;;
66741;SDS011;53654;54.152;19.432;2022-12-17T04:43:18;37.60;;;23.70;;
66741;SDS011;53654;54.152;19.432;2022-12-17T04:46:03;34.20;;;23.70;;
66741;SDS011;53654;54.152;19.432;2022-12-17T04:48:49;35.40;;;24.20;;
66741;SDS011;53654;54.152;19.432;2022-12-17T04:51:34;37.30;;;24.90;;
66741;SDS011;53654;54.152;19.432;2022-12-17T04:54:20;40.30;;;25.50;;
66741;SDS011;53654;54.152;19.432;2022-12-17T04:57:05;43.40;;;27.50;;
66741;SDS011;53654;54.152;19.432;2022-12-17T04:59:50;45.00;;;27.90;;
66741;SDS011;53654;54.152;19.432;2022-12-17T05:02:35;43.30;;;27.00;;
66741;SDS011;53654;54.152;19.432;2022-12-17T05:05:21;43.50;;;27.00;;
66741;SDS011;53654;54.152;19.432;2022-12-17T05:08:05;45.40;;;28.40;;
66741;SDS011;53654;54.152;19.432;2022-12-17T05:10:51;43.50;;;28.20;;
66741;SDS011;53654;54.152;19.432;2022-12-17T05:13:36;42.80;;;27.20;;
66741;SDS011;53654;54.152;19.432;2022-12-17T05:16:21;44.00;;;27.90;;
66741;SDS011;53654;54.152;19.432;2022-12-17T05:19:06;43.40;;;27.70;;
66741;SDS011;53654;54.152;19.432;2022-12-17T05:21:54;44.20;;;27.20;;
66741;SDS011;53654;54.152;19.432;2022-12-17T05:24:39;43.70;;;29.20;;
66741;SDS011;53654;54.152;19.432;2022-12-17T05:27:24;52.80;;;33.50;;
66741;SDS011;53654;54.152;19.432;2022-12-17T05:30:09;56.60;;;34.10;;
66741;SDS011;53654;54.152;19.432;2022-12-17T05:32:59;50.70;;;32.70;;
66741;SDS011;53654;54.152;19.432;2022-12-17T05:35:46;47.00;;;28.90;;
66741;SDS011;53654;54.152;19.432;2022-12-17T05:38:31;44.90;;;29.70;;
66741;SDS011;53654;54.152;19.432;2022-12-17T05:41:17;46.70;;;29.00;;
66741;SDS011;53654;54.152;19.432;2022-12-17T05:44:02;46.80;;;29.90;;
66741;SDS011;53654;54.152;19.432;2022-12-17T05:46:47;45.30;;;30.10;;
66741;SDS011;53654;54.152;19.432;2022-12-17T05:49:33;47.90;;;30.90;;
66741;SDS011;53654;54.152;19.432;2022-12-17T05:52:22;45.30;;;30.20;;
66741;SDS011;53654;54.152;19.432;2022-12-17T05:55:07;46.90;;;31.50;;
66741;SDS011;53654;54.152;19.432;2022-12-17T05:58:00;49.30;;;33.00;;
66741;SDS011;53654;54.152;19.432;2022-12-17T06:00:49;47.40;;;31.40;;
66741;SDS011;53654;54.152;19.432;2022-12-17T06:03:42;46.00;;;30.90;;
66741;SDS011;53654;54.152;19.432;2022-12-17T06:06:28;44.70;;;30.70;;
66741;SDS011;53654;54.152;19.432;2022-12-17T06:09:13;44.20;;;28.80;;
66741;SDS011;53654;54.152;19.432;2022-12-17T06:11:59;44.80;;;30.10;;
66741;SDS011;53654;54.152;19.432;2022-12-17T06:14:44;41.80;;;27.70;;
66741;SDS011;53654;54.152;19.432;2022-12-17T06:17:29;41.50;;;28.60;;
66741;SDS011;53654;54.152;19.432;2022-12-17T06:20:14;44.40;;;29.90;;
66741;SDS011;53654;54.152;19.432;2022-12-17T06:23:01;44.10;;;29.20;;
66741;SDS011;53654;54.152;19.432;2022-12-17T06:25:48;58.30;;;37.00;;
66741;SDS011;53654;54.152;19.432;2022-12-17T06:28:35;53.60;;;37.10;;
66741;SDS011;53654;54.152;19.432;2022-12-17T06:31:21;47.20;;;32.20;;
66741;SDS011;53654;54.152;19.432;2022-12-17T06:34:07;45.50;;;30.60;;
66741;SDS011;53654;54.152;19.432;2022-12-17T06:36:52;45.10;;;31.10;;
66741;SDS011;53654;54.152;19.432;2022-12-17T06:39:37;51.40;;;34.30;;
66741;SDS011;53654;54.152;19.432;2022-12-17T06:42:22;49.40;;;32.30;;
66741;SDS011;53654;54.152;19.432;2022-12-17T06:45:08;46.30;;;30.90;;
66741;SDS011;53654;54.152;19.432;2022-12-17T06:48:04;48.40;;;32.40;;
66741;SDS011;53654;54.152;19.432;2022-12-17T06:50:52;48.70;;;33.10;;
66741;SDS011;53654;54.152;19.432;2022-12-17T06:53:53;51.50;;;34.40;;
66741;SDS011;53654;54.152;19.432;2022-12-17T06:56:39;47.50;;;32.40;;
66741;SDS011;53654;54.152;19.432;2022-12-17T06:59:24;47.80;;;31.70;;
66741;SDS011;53654;54.152;19.432;2022-12-17T07:02:10;43.80;;;30.30;;
66741;SDS011;53654;54.152;19.432;2022-12-17T07:04:55;44.80;;;30.10;;
66741;SDS011;53654;54.152;19.432;2022-12-17T07:07:41;41.90;;;29.50;;
66741;SDS011;53654;54.152;19.432;2022-12-17T07:10:26;43.00;;;29.00;;
66741;SDS011;53654;54.152;19.432;2022-12-17T07:13:12;41.70;;;28.90;;
66741;SDS011;53654;54.152;19.432;2022-12-17T07:15:57;46.90;;;31.60;;
66741;SDS011;53654;54.152;19.432;2022-12-17T07:18:43;45.40;;;30.10;;
66741;SDS011;53654;54.152;19.432;2022-12-17T07:21:28;45.80;;;31.00;;
66741;SDS011;53654;54.152;19.432;2022-12-17T07:24:14;48.50;;;32.30;;
66741;SDS011;53654;54.152;19.432;2022-12-17T07:26:59;45.30;;;31.20;;
66741;SDS011;53654;54.152;19.432;2022-12-17T07:29:44;42.50;;;30.00;;
66741;SDS011;53654;54.152;19.432;2022-12-17T07:32:29;48.80;;;33.30;;
66741;SDS011;53654;54.152;19.432;2022-12-17T07:35:14;47.60;;;32.50;;
66741;SDS011;53654;54.152;19.432;2022-12-17T07:38:00;47.60;;;33.00;;
66741;SDS011;53654;54.152;19.432;2022-12-17T07:40:47;48.80;;;32.30;;
66741;SDS011;53654;54.152;19.432;2022-12-17T07:43:32;47.50;;;31.60;;
66741;SDS011;53654;54.152;19.432;2022-12-17T07:46:19;46.30;;;31.10;;
66741;SDS011;53654;54.152;19.432;2022-12-17T07:49:05;46.00;;;31.30;;
66741;SDS011;53654;54.152;19.432;2022-12-17T07:51:52;48.70;;;32.40;;
66741;SDS011;53654;54.152;19.432;2022-12-17T07:54:37;48.30;;;32.00;;
66741;SDS011;53654;54.152;19.432;2022-12-17T07:57:23;44.10;;;30.10;;
66741;SDS011;53654;54.152;19.432;2022-12-17T08:00:09;47.50;;;31.10;;
66741;SDS011;53654;54.152;19.432;2022-12-17T08:02:58;51.80;;;33.50;;
66741;SDS011;53654;54.152;19.432;2022-12-17T08:05:45;59.70;;;39.10;;
66741;SDS011;53654;54.152;19.432;2022-12-17T08:08:31;54.40;;;36.60;;
66741;SDS011;53654;54.152;19.432;2022-12-17T08:11:15;59.90;;;39.40;;
66741;SDS011;53654;54.152;19.432;2022-12-17T08:14:01;56.80;;;37.00;;
66741;SDS011;53654;54.152;19.432;2022-12-17T08:16:46;57.20;;;38.10;;
66741;SDS011;53654;54.152;19.432;2022-12-17T08:19:31;64.20;;;41.90;;
66741;SDS011;53654;54.152;19.432;2022-12-17T08:22:17;63.00;;;42.10;;
66741;SDS011;53654;54.152;19.432;2022-12-17T08:25:03;61.10;;;39.10;;
66741;SDS011;53654;54.152;19.432;2022-12-17T08:27:53;58.60;;;38.50;;
66741;SDS011;53654;54.152;19.432;2022-12-17T08:31:00;60.20;;;39.00;;
66741;SDS011;53654;54.152;19.432;2022-12-17T08:33:46;61.60;;;39.40;;
66741;SDS011;53654;54.152;19.432;2022-12-17T08:36:34;63.60;;;39.50;;
66741;SDS011;53654;54.152;19.432;2022-12-17T08:39:19;57.10;;;38.30;;
66741;SDS011;53654;54.152;19.432;2022-12-17T08:42:04;65.00;;;39.70;;
66741;SDS011;53654;54.152;19.432;2022-12-17T08:44:50;59.90;;;36.50;;
66741;SDS011;53654;54.152;19.432;2022-12-17T08:47:35;59.60;;;35.80;;
66741;SDS011;53654;54.152;19.432;2022-12-17T08:50:26;62.40;;;38.60;;
66741;SDS011;53654;54.152;19.432;2022-12-17T08:53:11;64.00;;;38.60;;
66741;SDS011;53654;54.152;19.432;2022-12-17T08:56:01;68.70;;;40.80;;
66741;SDS011;53654;54.152;19.432;2022-12-17T08:59:03;70.50;;;40.40;;
66741;SDS011;53654;54.152;19.432;2022-12-17T09:01:48;76.90;;;43.80;;
66741;SDS011;53654;54.152;19.432;2022-12-17T09:04:33;72.30;;;43.70;;
66741;SDS011;53654;54.152;19.432;2022-12-17T09:07:19;76.10;;;46.10;;
66741;SDS011;53654;54.152;19.432;2022-12-17T09:10:04;76.90;;;46.90;;
66741;SDS011;53654;54.152;19.432;2022-12-17T09:12:50;79.70;;;48.80;;
66741;SDS011;53654;54.152;19.432;2022-12-17T09:15:35;72.40;;;43.90;;
66741;SDS011;53654;54.152;19.432;2022-12-17T09:18:21;80.70;;;50.20;;
66741;SDS011;53654;54.152;19.432;2022-12-17T09:21:06;86.60;;;49.50;;
66741;SDS011;53654;54.152;19.432;2022-12-17T09:23:52;81.50;;;48.40;;
66741;SDS011;53654;54.152;19.432;2022-12-17T09:26:38;77.80;;;46.50;;
66741;SDS011;53654;54.152;19.432;2022-12-17T09:29:23;72.90;;;44.90;;
66741;SDS011;53654;54.152;19.432;2022-12-17T09:32:08;79.80;;;47.30;;
66741;SDS011;53654;54.152;19.432;2022-12-17T09:34:53;75.80;;;46.70;;
66741;SDS011;53654;54.152;19.432;2022-12-17T09:37:38;77.40;;;45.60;;
66741;SDS011;53654;54.152;19.432;2022-12-17T09:40:24;73.30;;;44.90;;
66741;SDS011;53654;54.152;19.432;2022-12-17T09:43:29;70.60;;;43.00;;
66741;SDS011;53654;54.152;19.432;2022-12-17T09:46:25;76.40;;;47.40;;
66741;SDS011;53654;54.152;19.432;2022-12-17T09:49:17;80.70;;;47.10;;
66741;SDS011;53654;54.152;19.432;2022-12-17T09:52:19;78.80;;;48.10;;
66741;SDS011;53654;54.152;19.432;2022-12-17T09:55:15;78.90;;;49.10;;
66741;SDS011;53654;54.152;19.432;2022-12-17T09:58:04;85.20;;;52.20;;
66741;SDS011;53654;54.152;19.432;2022-12-17T10:00:50;89.90;;;55.70;;
66741;SDS011;53654;54.152;19.432;2022-12-17T10:03:57;88.20;;;55.00;;
66741;SDS011;53654;54.152;19.432;2022-12-17T10:06:42;78.80;;;47.50;;
66741;SDS011;53654;54.152;19.432;2022-12-17T10:09:28;82.40;;;50.30;;
66741;SDS011;53654;54.152;19.432;2022-12-17T10:12:17;77.10;;;48.30;;
66741;SDS011;53654;54.152;19.432;2022-12-17T10:15:04;78.70;;;48.50;;
66741;SDS011;53654;54.152;19.432;2022-12-17T10:17:50;76.40;;;49.60;;
66741;SDS011;53654;54.152;19.432;2022-12-17T10:20:37;79.70;;;49.80;;
66741;SDS011;53654;54.152;19.432;2022-12-17T10:23:27;78.90;;;47.80;;
66741;SDS011;53654;54.152;19.432;2022-12-17T10:26:16;82.00;;;49.20;;
66741;SDS011;53654;54.152;19.432;2022-12-17T10:29:04;82.50;;;49.70;;
66741;SDS011;53654;54.152;19.432;2022-12-17T10:38:12;85.50;;;53.20;;
66741;SDS011;53654;54.152;19.432;2022-12-17T10:41:25;88.60;;;53.70;;
66741;SDS011;53654;54.152;19.432;2022-12-17T10:44:18;90.00;;;56.00;;
66741;SDS011;53654;54.152;19.432;2022-12-17T10:47:04;85.50;;;53.00;;
66741;SDS011;53654;54.152;19.432;2022-12-17T10:50:05;80.40;;;51.70;;
66741;SDS011;53654;54.152;19.432;2022-12-17T10:52:55;83.50;;;51.90;;
66741;SDS011;53654;54.152;19.432;2022-12-17T10:55:58;82.60;;;51.20;;
66741;SDS011;53654;54.152;19.432;2022-12-17T10:58:45;75.50;;;47.30;;
66741;SDS011;53654;54.152;19.432;2022-12-17T11:01:33;74.60;;;47.00;;
66741;SDS011;53654;54.152;19.432;2022-12-17T11:07:09;74.40;;;48.50;;
66741;SDS011;53654;54.152;19.432;2022-12-17T11:10:01;75.30;;;47.70;;
66741;SDS011;53654;54.152;19.432;2022-12-17T11:12:50;71.90;;;47.80;;
66741;SDS011;53654;54.152;19.432;2022-12-17T11:15:42;74.40;;;49.60;;
66741;SDS011;53654;54.152;19.432;2022-12-17T11:18:50;72.40;;;47.70;;
66741;SDS011;53654;54.152;19.432;2022-12-17T11:21:53;74.10;;;51.00;;
66741;SDS011;53654;54.152;19.432;2022-12-17T11:27:52;83.80;;;55.80;;
66741;SDS011;53654;54.152;19.432;2022-12-17T11:30:48;85.20;;;58.30;;
66741;SDS011;53654;54.152;19.432;2022-12-17T11:33:43;78.80;;;53.80;;
66741;SDS011;53654;54.152;19.432;2022-12-17T11:36:45;63.80;;;43.40;;
66741;SDS011;53654;54.152;19.432;2022-12-17T11:39:58;61.70;;;42.40;;
66741;SDS011;53654;54.152;19.432;2022-12-17T11:42:57;56.60;;;39.30;;
66741;SDS011;53654;54.152;19.432;2022-12-17T11:49:26;48.20;;;34.80;;
66741;SDS011;53654;54.152;19.432;2022-12-17T11:52:18;45.00;;;35.20;;
66741;SDS011;53654;54.152;19.432;2022-12-17T11:58:54;51.20;;;36.70;;
66741;SDS011;53654;54.152;19.432;2022-12-17T12:11:59;52.90;;;36.80;;
66741;SDS011;53654;54.152;19.432;2022-12-17T12:22:05;39.70;;;29.40;;
66741;SDS011;53654;54.152;19.432;2022-12-17T12:34:19;30.60;;;22.60;;
66741;SDS011;53654;54.152;19.432;2022-12-17T12:37:10;27.80;;;19.80;;
66741;SDS011;53654;54.152;19.432;2022-12-17T12:40:00;27.10;;;21.50;;
66741;SDS011;53654;54.152;19.432;2022-12-17T12:42:50;29.00;;;21.80;;
66741;SDS011;53654;54.152;19.432;2022-12-17T12:48:52;25.40;;;18.10;;
66741;SDS011;53654;54.152;19.432;2022-12-17T12:51:48;31.40;;;22.20;;
66741;SDS011;53654;54.152;19.432;2022-12-17T13:03:25;29.90;;;22.40;;
66741;SDS011;53654;54.152;19.432;2022-12-17T13:06:12;29.10;;;21.70;;
66741;SDS011;53654;54.152;19.432;2022-12-17T13:08:41;30.00;;;23.40;;
66741;SDS011;53654;54.152;19.432;2022-12-17T13:11:09;30.70;;;22.60;;
66741;SDS011;53654;54.152;19.432;2022-12-17T13:13:53;31.40;;;24.60;;
66741;SDS011;53654;54.152;19.432;2022-12-17T13:19:03;35.20;;;24.60;;
66741;SDS011;53654;54.152;19.432;2022-12-17T13:21:43;35.30;;;24.80;;
66741;SDS011;53654;54.152;19.432;2022-12-17T13:24:11;33.00;;;23.80;;
66741;SDS011;53654;54.152;19.432;2022-12-17T13:32:00;28.50;;;21.60;;
66741;SDS011;53654;54.152;19.432;2022-12-17T13:34:39;25.70;;;19.50;;
66741;SDS011;53654;54.152;19.432;2022-12-17T13:37:14;26.00;;;18.90;;
66741;SDS011;53654;54.152;19.432;2022-12-17T13:42:38;27.10;;;20.10;;
66741;SDS011;53654;54.152;19.432;2022-12-17T13:45:05;28.90;;;21.30;;
66741;SDS011;53654;54.152;19.432;2022-12-17T13:47:33;28.40;;;21.00;;
66741;SDS011;53654;54.152;19.432;2022-12-17T13:50:02;28.90;;;22.20;;
66741;SDS011;53654;54.152;19.432;2022-12-17T13:53:10;21.80;;;17.00;;
66741;SDS011;53654;54.152;19.432;2022-12-17T13:55:38;21.90;;;16.10;;
66741;SDS011;53654;54.152;19.432;2022-12-17T13:58:05;22.70;;;18.20;;
66741;SDS011;53654;54.152;19.432;2022-12-17T14:00:45;21.30;;;17.40;;
66741;SDS011;53654;54.152;19.432;2022-12-17T14:03:16;20.80;;;16.90;;
66741;SDS011;53654;54.152;19.432;2022-12-17T14:06:03;21.20;;;17.20;;
66741;SDS011;53654;54.152;19.432;2022-12-17T14:08:35;27.50;;;19.30;;
66741;SDS011;53654;54.152;19.432;2022-12-17T14:11:03;19.00;;;14.90;;
66741;SDS011;53654;54.152;19.432;2022-12-17T14:13:49;18.90;;;14.60;;
66741;SDS011;53654;54.152;19.432;2022-12-17T14:16:16;15.40;;;12.60;;
66741;SDS011;53654;54.152;19.432;2022-12-17T14:18:47;15.90;;;13.00;;
66741;SDS011;53654;54.152;19.432;2022-12-17T14:21:25;14.50;;;11.90;;
66741;SDS011;53654;54.152;19.432;2022-12-17T14:23:54;14.30;;;12.10;;
66741;SDS011;53654;54.152;19.432;2022-12-17T14:26:21;22.20;;;15.70;;
66741;SDS011;53654;54.152;19.432;2022-12-17T14:28:50;23.80;;;19.40;;
66741;SDS011;53654;54.152;19.432;2022-12-17T14:34:01;35.60;;;27.50;;
66741;SDS011;53654;54.152;19.432;2022-12-17T14:36:32;32.80;;;26.40;;
66741;SDS011;53654;54.152;19.432;2022-12-17T14:39:03;27.80;;;22.80;;
66741;SDS011;53654;54.152;19.432;2022-12-17T14:41:36;21.50;;;18.10;;
66741;SDS011;53654;54.152;19.432;2022-12-17T14:44:26;21.00;;;18.30;;
66741;SDS011;53654;54.152;19.432;2022-12-17T14:50:22;26.70;;;20.80;;
66741;SDS011;53654;54.152;19.432;2022-12-17T14:52:53;27.00;;;21.40;;
66741;SDS011;53654;54.152;19.432;2022-12-17T14:55:25;25.80;;;21.00;;
66741;SDS011;53654;54.152;19.432;2022-12-17T15:00:43;28.80;;;23.00;;
66741;SDS011;53654;54.152;19.432;2022-12-17T15:03:33;34.20;;;26.10;;
66741;SDS011;53654;54.152;19.432;2022-12-17T15:06:25;41.50;;;33.40;;
66741;SDS011;53654;54.152;19.432;2022-12-17T15:08:52;39.40;;;30.70;;
66741;SDS011;53654;54.152;19.432;2022-12-17T15:11:20;25.50;;;20.00;;
66741;SDS011;53654;54.152;19.432;2022-12-17T15:13:47;27.60;;;21.40;;
66741;SDS011;53654;54.152;19.432;2022-12-17T15:16:22;30.30;;;22.70;;
66741;SDS011;53654;54.152;19.432;2022-12-17T15:18:49;24.60;;;19.10;;
66741;SDS011;53654;54.152;19.432;2022-12-17T15:21:16;26.80;;;20.20;;
66741;SDS011;53654;54.152;19.432;2022-12-17T15:23:43;24.00;;;19.20;;
66741;SDS011;53654;54.152;19.432;2022-12-17T15:26:12;20.10;;;16.90;;
66741;SDS011;53654;54.152;19.432;2022-12-17T15:28:40;18.90;;;14.90;;
66741;SDS011;53654;54.152;19.432;2022-12-17T15:31:12;18.70;;;15.50;;
66741;SDS011;53654;54.152;19.432;2022-12-17T15:33:40;23.90;;;19.50;;
66741;SDS011;53654;54.152;19.432;2022-12-17T15:36:09;21.70;;;17.50;;
66741;SDS011;53654;54.152;19.432;2022-12-17T15:38:36;23.10;;;18.40;;
66741;SDS011;53654;54.152;19.432;2022-12-17T15:41:04;25.60;;;19.80;;
66741;SDS011;53654;54.152;19.432;2022-12-17T15:43:51;26.10;;;20.40;;
66741;SDS011;53654;54.152;19.432;2022-12-17T15:46:18;25.80;;;20.00;;
66741;SDS011;53654;54.152;19.432;2022-12-17T15:48:45;26.50;;;20.60;;
66741;SDS011;53654;54.152;19.432;2022-12-17T15:51:16;27.60;;;20.80;;
66741;SDS011;53654;54.152;19.432;2022-12-17T15:53:46;26.60;;;21.00;;
66741;SDS011;53654;54.152;19.432;2022-12-17T15:56:20;27.50;;;21.50;;
66741;SDS011;53654;54.152;19.432;2022-12-17T15:58:49;24.80;;;20.40;;
66741;SDS011;53654;54.152;19.432;2022-12-17T16:01:16;27.10;;;21.60;;
66741;SDS011;53654;54.152;19.432;2022-12-17T16:03:45;27.40;;;22.20;;
66741;SDS011;53654;54.152;19.432;2022-12-17T16:06:11;27.70;;;21.50;;
66741;SDS011;53654;54.152;19.432;2022-12-17T16:08:38;25.90;;;21.40;;
66741;SDS011;53654;54.152;19.432;2022-12-17T16:11:07;27.30;;;21.60;;
66741;SDS011;53654;54.152;19.432;2022-12-17T16:13:35;26.50;;;21.90;;
66741;SDS011;53654;54.152;19.432;2022-12-17T16:16:03;29.00;;;24.20;;
66741;SDS011;53654;54.152;19.432;2022-12-17T16:18:30;31.40;;;26.20;;
66741;SDS011;53654;54.152;19.432;2022-12-17T16:21:01;31.50;;;26.90;;
66741;SDS011;53654;54.152;19.432;2022-12-17T16:23:28;32.20;;;27.40;;
66741;SDS011;53654;54.152;19.432;2022-12-17T16:25:56;29.60;;;25.70;;
66741;SDS011;53654;54.152;19.432;2022-12-17T16:28:24;30.80;;;24.90;;
66741;SDS011;53654;54.152;19.432;2022-12-17T16:30:58;29.90;;;24.20;;
66741;SDS011;53654;54.152;19.432;2022-12-17T16:33:26;31.20;;;25.00;;
66741;SDS011;53654;54.152;19.432;2022-12-17T16:36:01;35.40;;;28.20;;
66741;SDS011;53654;54.152;19.432;2022-12-17T16:38:29;33.50;;;27.60;;
66741;SDS011;53654;54.152;19.432;2022-12-17T16:40:56;34.40;;;28.10;;
66741;SDS011;53654;54.152;19.432;2022-12-17T16:43:25;33.50;;;27.60;;
66741;SDS011;53654;54.152;19.432;2022-12-17T16:45:53;38.30;;;31.60;;
66741;SDS011;53654;54.152;19.432;2022-12-17T16:48:20;33.60;;;27.90;;
66741;SDS011;53654;54.152;19.432;2022-12-17T16:50:48;35.10;;;27.50;;
66741;SDS011;53654;54.152;19.432;2022-12-17T16:53:16;30.70;;;24.50;;
66741;SDS011;53654;54.152;19.432;2022-12-17T16:55:44;26.90;;;22.60;;
66741;SDS011;53654;54.152;19.432;2022-12-17T16:58:13;30.60;;;24.50;;
66741;SDS011;53654;54.152;19.432;2022-12-17T17:00:41;33.80;;;26.30;;
66741;SDS011;53654;54.152;19.432;2022-12-17T17:03:08;28.50;;;24.40;;
66741;SDS011;53654;54.152;19.432;2022-12-17T17:05:37;51.30;;;35.80;;
66741;SDS011;53654;54.152;19.432;2022-12-17T17:08:05;58.60;;;38.90;;
66741;SDS011;53654;54.152;19.432;2022-12-17T17:10:33;54.70;;;39.00;;
66741;SDS011;53654;54.152;19.432;2022-12-17T17:13:02;57.40;;;38.80;;
66741;SDS011;53654;54.152;19.432;2022-12-17T17:15:29;57.30;;;40.00;;